Time;durP1;ratioP1;P1;durP2;ratioP2;P2;SDS_P1;SDS_P2;PMS_P1;PMS_P2;Temp;Humidity;BMP_temperature;BMP_pressure;BME280_temperature;BME280_humidity;BME280_pressure;Samples;Min_cycle;Max_cycle;Signal;HPM_P1;HPM_P2
2022/09/02 00:02:03;;;;;;;0.20;0.20;;;18.10;50.20;;;;;;6247021;22;20065;-73
2022/09/02 00:04:29;;;;;;;0.52;0.20;;;18.10;50.30;;;;;;6248049;22;20404;-73
2022/09/02 00:06:54;;;;;;;0.20;0.20;;;18.00;50.20;;;;;;6222571;22;20035;-73
2022/09/02 00:09:23;;;;;;;0.20;0.20;;;18.00;50.30;;;;;;6248345;22;20034;-73
2022/09/02 00:11:51;;;;;;;0.30;0.30;;;18.00;50.40;;;;;;6248492;22;20374;-73
2022/09/02 00:14:21;;;;;;;0.30;0.30;;;18.00;50.50;;;;;;6275096;22;20003;-73
2022/09/02 00:16:50;;;;;;;0.20;0.20;;;17.80;50.40;;;;;;6223334;22;20332;-73
2022/09/02 00:19:22;;;;;;;0.20;0.20;;;17.90;50.50;;;;;;6248066;22;20007;-73
2022/09/02 00:21:49;;;;;;;0.32;0.32;;;17.90;50.60;;;;;;6275087;22;19999;-73
2022/09/02 00:24:16;;;;;;;0.25;0.20;;;17.80;50.60;;;;;;6275382;22;20011;-73
2022/09/02 00:26:43;;;;;;;0.20;0.20;;;17.80;50.70;;;;;;6274900;22;20455;-73
2022/09/02 00:29:09;;;;;;;0.30;0.30;;;17.70;50.70;;;;;;6247459;22;20004;-73
2022/09/02 00:31:35;;;;;;;0.10;0.10;;;17.80;50.70;;;;;;6247822;22;20000;-73
2022/09/02 00:34:03;;;;;;;0.20;0.20;;;17.80;50.80;;;;;;6275720;22;20008;-73
2022/09/02 00:36:29;;;;;;;0.40;0.30;;;17.70;50.80;;;;;;6275150;22;20000;-73
2022/09/02 00:38:55;;;;;;;0.20;0.20;;;17.70;50.80;;;;;;6275231;22;20035;-73
2022/09/02 00:41:24;;;;;;;0.30;0.30;;;17.60;50.80;;;;;;6248618;22;20408;-73
2022/09/02 00:43:54;;;;;;;0.20;0.20;;;17.60;50.90;;;;;;6248307;22;20000;-73
2022/09/02 00:46:23;;;;;;;0.20;0.20;;;17.60;50.90;;;;;;6274967;22;20012;-73
2022/09/02 00:49:09;;;;;;;0.28;0.28;;;17.60;50.90;;;;;;6274989;22;19996;-73
2022/09/02 00:51:57;;;;;;;0.22;0.22;;;17.60;51.60;;;;;;6247527;22;20011;-73
2022/09/02 00:54:26;;;;;;;0.30;0.30;;;17.60;51.10;;;;;;6275124;22;20003;-73
2022/09/02 00:56:53;;;;;;;0.20;0.20;;;17.50;51.00;;;;;;6274979;22;20004;-73
2022/09/02 00:59:26;;;;;;;0.22;0.22;;;17.50;51.00;;;;;;6274941;22;20091;-73
2022/09/02 01:01:52;;;;;;;0.25;0.20;;;17.50;51.10;;;;;;6247660;22;20015;-73
2022/09/02 01:04:18;;;;;;;0.10;0.10;;;17.50;51.10;;;;;;6274727;22;20000;-73
2022/09/02 01:06:44;;;;;;;0.30;0.30;;;17.50;51.10;;;;;;6274841;22;20008;-73
2022/09/02 01:09:13;;;;;;;0.30;0.30;;;17.40;51.10;;;;;;6275089;22;20419;-72
2022/09/02 01:11:46;;;;;;;0.20;0.20;;;17.40;51.20;;;;;;6275160;22;20010;-73
2022/09/02 01:14:14;;;;;;;0.30;0.22;;;17.40;51.20;;;;;;6275445;22;20000;-73
2022/09/02 01:16:47;;;;;;;0.20;0.20;;;17.50;51.30;;;;;;6275385;22;20004;-73
2022/09/02 01:19:21;;;;;;;0.17;0.10;;;17.40;51.30;;;;;;6274823;22;19996;-73
2022/09/02 01:21:50;;;;;;;0.20;0.20;;;17.40;51.30;;;;;;6247546;22;20022;-73
2022/09/02 01:24:18;;;;;;;1.45;0.30;;;17.40;51.30;;;;;;6247573;22;20095;-72
2022/09/02 01:26:45;;;;;;;0.20;0.20;;;17.30;51.30;;;;;;6247547;22;20026;-72
2022/09/02 01:29:11;;;;;;;0.40;0.40;;;17.30;51.30;;;;;;6248389;22;20083;-73
2022/09/02 01:31:36;;;;;;;0.13;0.13;;;17.30;51.30;;;;;;6274775;22;20401;-73
2022/09/02 01:34:05;;;;;;;0.30;0.30;;;17.30;51.40;;;;;;6275013;22;20043;-73
2022/09/02 01:36:31;;;;;;;0.20;0.20;;;17.30;51.40;;;;;;6274817;22;20003;-73
2022/09/02 01:38:57;;;;;;;0.20;0.20;;;17.30;51.40;;;;;;6274629;22;20079;-73
2022/09/02 01:41:23;;;;;;;0.20;0.20;;;17.30;51.50;;;;;;6248408;22;20345;-73
2022/09/02 01:43:49;;;;;;;0.20;0.20;;;17.20;51.40;;;;;;6274386;22;20324;-73
2022/09/02 01:46:15;;;;;;;0.30;0.30;;;17.20;51.50;;;;;;6274684;22;20008;-73
2022/09/02 01:48:46;;;;;;;0.10;0.10;;;17.20;51.50;;;;;;6274250;22;20451;-73
2022/09/02 01:51:17;;;;;;;0.55;0.35;;;17.20;51.50;;;;;;6275099;22;19996;-73
2022/09/02 01:53:43;;;;;;;0.20;0.20;;;17.20;51.60;;;;;;6275125;22;19993;-73
2022/09/02 01:56:09;;;;;;;0.20;0.20;;;17.10;51.50;;;;;;6271775;22;20014;-73
2022/09/02 01:58:35;;;;;;;0.20;0.20;;;17.10;51.50;;;;;;6275477;22;19999;-73
2022/09/02 02:01:02;;;;;;;0.20;0.20;;;17.10;51.60;;;;;;6274708;22;20010;-73
2022/09/02 02:03:27;;;;;;;0.20;0.20;;;17.10;51.60;;;;;;6247459;22;20008;-73
2022/09/02 02:05:54;;;;;;;0.38;0.20;;;17.10;51.70;;;;;;6274577;22;20321;-73
2022/09/02 02:08:21;;;;;;;0.20;0.20;;;17.10;51.70;;;;;;6247680;22;20011;-72
2022/09/02 02:10:47;;;;;;;0.20;0.20;;;17.10;51.70;;;;;;6222541;22;20083;-73
2022/09/02 02:13:13;;;;;;;0.30;0.30;;;17.10;51.70;;;;;;6274870;22;20030;-72
2022/09/02 02:15:40;;;;;;;0.20;0.20;;;17.10;51.70;;;;;;6274673;22;20060;-73
2022/09/02 02:18:07;;;;;;;0.20;0.20;;;17.10;51.70;;;;;;6274514;22;20018;-73
2022/09/02 02:20:33;;;;;;;0.55;0.25;;;17.20;51.80;;;;;;6274508;22;20343;-72
2022/09/02 02:22:59;;;;;;;0.20;0.20;;;17.10;51.70;;;;;;6275357;22;19999;-72
2022/09/02 02:25:25;;;;;;;0.20;0.20;;;17.10;51.70;;;;;;6247735;22;20016;-73
2022/09/02 02:27:51;;;;;;;0.30;0.30;;;17.10;51.80;;;;;;6275041;22;20294;-73
2022/09/02 02:30:17;;;;;;;0.20;0.20;;;17.00;51.70;;;;;;6274436;22;20031;-73
2022/09/02 02:32:46;;;;;;;0.10;0.10;;;17.10;51.80;;;;;;6247224;22;20015;-73
2022/09/02 02:35:13;;;;;;;0.35;0.20;;;17.20;51.90;;;;;;6247425;22;20003;-72
2022/09/02 02:37:40;;;;;;;0.30;0.30;;;17.10;51.90;;;;;;6248096;22;20000;-72
2022/09/02 02:40:06;;;;;;;0.30;0.30;;;17.00;51.80;;;;;;6247212;22;20095;-72
2022/09/02 02:42:33;;;;;;;0.20;0.20;;;17.00;51.90;;;;;;6247579;22;20049;-72
2022/09/02 02:44:59;;;;;;;2.15;0.30;;;17.00;51.90;;;;;;6274237;22;20020;-72
2022/09/02 02:47:25;;;;;;;0.25;0.25;;;17.00;51.90;;;;;;6247081;22;20022;-73
2022/09/02 02:49:51;;;;;;;0.20;0.20;;;17.10;52.00;;;;;;6274883;22;20042;-73
2022/09/02 02:52:17;;;;;;;0.20;0.20;;;17.00;51.90;;;;;;6247119;22;20360;-72
2022/09/02 02:54:43;;;;;;;0.28;0.20;;;17.00;51.90;;;;;;6274495;22;20000;-73
2022/09/02 02:57:09;;;;;;;0.15;0.15;;;17.00;51.90;;;;;;6276154;22;20004;-73
2022/09/02 02:59:35;;;;;;;0.20;0.20;;;17.00;52.00;;;;;;6276029;22;20000;-73
2022/09/02 03:02:02;;;;;;;0.10;0.10;;;16.90;52.00;;;;;;6223794;22;20007;-73
2022/09/02 03:04:28;;;;;;;0.30;0.30;;;16.90;52.00;;;;;;6248349;22;20016;-73
2022/09/02 03:06:54;;;;;;;0.22;0.22;;;16.90;52.10;;;;;;6275929;22;20476;-72
2022/09/02 03:09:20;;;;;;;0.20;0.20;;;16.90;52.10;;;;;;6275526;22;20019;-73
2022/09/02 03:11:47;;;;;;;0.20;0.20;;;16.90;52.10;;;;;;6275961;22;20328;-73
2022/09/02 03:14:12;;;;;;;0.73;0.30;;;16.90;52.20;;;;;;6275805;22;19999;-73
2022/09/02 03:16:38;;;;;;;0.65;0.20;;;16.90;52.20;;;;;;6275360;22;20324;-73
2022/09/02 03:19:05;;;;;;;0.20;0.20;;;16.90;52.20;;;;;;6223184;22;20004;-73
2022/09/02 03:21:31;;;;;;;0.20;0.20;;;16.90;52.30;;;;;;6275432;22;20098;-72
2022/09/02 03:23:56;;;;;;;0.10;0.10;;;16.80;52.20;;;;;;6276124;22;20024;-73
2022/09/02 03:26:24;;;;;;;0.20;0.20;;;16.80;52.30;;;;;;6276047;22;20008;-73
2022/09/02 03:28:53;;;;;;;0.30;0.30;;;16.80;52.30;;;;;;6275131;22;20070;-73
2022/09/02 03:31:21;;;;;;;0.22;0.22;;;16.80;52.30;;;;;;6275288;22;20015;-73
2022/09/02 03:33:47;;;;;;;0.20;0.20;;;16.80;52.40;;;;;;6275779;22;19996;-73
2022/09/02 03:36:25;;;;;;;0.30;0.30;;;16.80;52.40;;;;;;6275450;22;20076;-73
2022/09/02 03:38:51;;;;;;;0.20;0.20;;;16.80;52.50;;;;;;6275860;22;20015;-73
2022/09/02 03:41:16;;;;;;;0.38;0.20;;;16.80;52.50;;;;;;6248063;22;20080;-73
2022/09/02 03:43:42;;;;;;;0.20;0.20;;;16.70;52.50;;;;;;6275404;22;20313;-72
2022/09/02 03:46:08;;;;;;;0.60;0.30;;;16.70;52.50;;;;;;6275461;22;20014;-73
2022/09/02 03:48:35;;;;;;;0.40;0.40;;;16.70;52.60;;;;;;6275607;22;20510;-73
2022/09/02 03:51:01;;;;;;;0.28;0.20;;;16.60;52.60;;;;;;6275197;22;20004;-73
2022/09/02 03:53:27;;;;;;;0.20;0.20;;;16.60;52.60;;;;;;6275604;22;20004;-73
2022/09/02 03:55:53;;;;;;;0.15;0.15;;;16.60;52.70;;;;;;6275197;22;20428;-73
2022/09/02 03:58:21;;;;;;;0.20;0.20;;;16.60;52.70;;;;;;6275337;22;20014;-73
2022/09/02 04:00:52;;;;;;;0.25;0.25;;;16.60;52.80;;;;;;6248210;22;20010;-73
2022/09/02 04:03:18;;;;;;;0.30;0.30;;;16.60;53.50;;;;;;6275299;22;20007;-73
2022/09/02 04:05:47;;;;;;;0.13;0.13;;;16.50;52.80;;;;;;6275541;22;20379;-72
2022/09/02 04:08:13;;;;;;;0.40;0.30;;;16.50;52.90;;;;;;6275924;22;20049;-72
2022/09/02 04:10:39;;;;;;;0.40;0.40;;;16.50;52.90;;;;;;6249133;22;20037;-72
2022/09/02 04:13:05;;;;;;;0.20;0.20;;;16.50;52.90;;;;;;6275134;22;19996;-73
2022/09/02 04:15:30;;;;;;;0.20;0.20;;;16.50;53.00;;;;;;6275464;22;20007;-73
2022/09/02 04:17:56;;;;;;;0.22;0.22;;;16.50;53.00;;;;;;6248424;22;20443;-72
2022/09/02 04:20:22;;;;;;;2.05;0.30;;;16.50;53.00;;;;;;6275524;22;20083;-72
2022/09/02 04:22:48;;;;;;;0.40;0.20;;;16.50;53.00;;;;;;6248404;22;20015;-72
2022/09/02 04:25:14;;;;;;;0.20;0.20;;;16.50;53.10;;;;;;6272141;22;20450;-73
2022/09/02 04:27:40;;;;;;;0.20;0.20;;;16.50;53.10;;;;;;6247799;22;20095;-72
2022/09/02 04:30:07;;;;;;;0.20;0.20;;;16.40;53.00;;;;;;6248886;22;20472;-72
2022/09/02 04:32:33;;;;;;;0.30;0.30;;;16.50;53.10;;;;;;6248339;22;20466;-72
2022/09/02 04:34:59;;;;;;;0.20;0.20;;;16.50;53.10;;;;;;6244967;22;20011;-73
2022/09/02 04:37:26;;;;;;;0.20;0.20;;;16.50;53.10;;;;;;6248143;22;20372;-72
2022/09/02 04:39:52;;;;;;;0.20;0.20;;;16.40;53.10;;;;;;6275317;22;20010;-72
2022/09/02 04:42:18;;;;;;;0.20;0.20;;;16.40;53.10;;;;;;6275245;22;20000;-73
2022/09/02 04:44:45;;;;;;;0.22;0.22;;;16.40;53.10;;;;;;6275278;22;20023;-72
2022/09/02 04:47:11;;;;;;;0.30;0.30;;;16.40;53.20;;;;;;6275613;22;20010;-73
2022/09/02 04:49:37;;;;;;;0.20;0.20;;;16.40;53.20;;;;;;6275441;22;20004;-72
2022/09/02 04:52:04;;;;;;;0.30;0.30;;;16.40;53.20;;;;;;6275128;22;20450;-72
2022/09/02 04:54:30;;;;;;;0.32;0.30;;;16.40;53.20;;;;;;6247993;22;20011;-73
2022/09/02 04:56:56;;;;;;;0.30;0.30;;;16.40;53.20;;;;;;6248836;22;20000;-73
2022/09/02 04:59:21;;;;;;;0.20;0.20;;;16.50;53.30;;;;;;6275348;22;20387;-73
2022/09/02 05:01:48;;;;;;;0.20;0.20;;;16.40;53.20;;;;;;6275445;22;20420;-73
2022/09/02 05:04:14;;;;;;;0.30;0.30;;;16.30;53.20;;;;;;6275190;22;20023;-73
2022/09/02 05:06:40;;;;;;;0.43;0.30;;;16.40;53.30;;;;;;6275704;22;20049;-73
2022/09/02 05:09:07;;;;;;;0.22;0.22;;;16.40;53.30;;;;;;6248234;22;20054;-72
2022/09/02 05:11:34;;;;;;;0.10;0.10;;;16.30;53.20;;;;;;6246768;22;20011;-73
2022/09/02 05:14:03;;;;;;;0.20;0.20;;;16.30;53.20;;;;;;6222600;22;20433;-72
2022/09/02 05:16:32;;;;;;;0.20;0.20;;;16.40;53.30;;;;;;6222881;22;20049;-72
2022/09/02 05:18:59;;;;;;;0.20;0.20;;;16.40;53.30;;;;;;6275518;22;20004;-72
2022/09/02 05:21:25;;;;;;;0.50;0.30;;;16.40;53.20;;;;;;6248045;22;20059;-73
2022/09/02 05:23:52;;;;;;;0.20;0.20;;;16.40;53.20;;;;;;6247918;22;20004;-72
2022/09/02 05:26:18;;;;;;;0.20;0.20;;;16.40;53.20;;;;;;6223314;22;20320;-72
2022/09/02 05:28:44;;;;;;;0.30;0.30;;;16.40;53.20;;;;;;6247688;22;20000;-72
2022/09/02 05:31:16;;;;;;;0.13;0.13;;;16.40;53.20;;;;;;6275781;22;20011;-72
2022/09/02 05:33:42;;;;;;;0.10;0.10;;;16.40;53.20;;;;;;6274868;22;20000;-73
2022/09/02 05:36:12;;;;;;;0.45;0.32;;;16.40;53.30;;;;;;6248059;22;20440;-72
2022/09/02 05:38:39;;;;;;;0.35;0.20;;;16.40;53.30;;;;;;6247885;22;19999;-72
2022/09/02 05:41:13;;;;;;;0.30;0.30;;;16.40;53.40;;;;;;6275007;22;20049;-73
2022/09/02 05:43:40;;;;;;;0.20;0.20;;;16.40;53.40;;;;;;6275632;22;20408;-72
2022/09/02 05:46:08;;;;;;;0.20;0.20;;;16.40;53.40;;;;;;6246089;22;20498;-72
2022/09/02 05:51:17;;;;;;;0.20;0.20;;;16.40;53.40;;;;;;6274863;22;20022;-73
2022/09/02 05:53:43;;;;;;;0.20;0.20;;;16.40;53.30;;;;;;6247505;22;20007;-73
2022/09/02 05:56:09;;;;;;;0.20;0.20;;;16.50;53.40;;;;;;6274732;22;20000;-72
2022/09/02 05:58:35;;;;;;;0.20;0.20;;;16.50;53.30;;;;;;6247997;22;20007;-73
2022/09/02 06:01:08;;;;;;;0.20;0.20;;;16.50;53.20;;;;;;6275229;22;20078;-72
2022/09/02 06:03:33;;;;;;;0.20;0.20;;;16.60;53.20;;;;;;6248389;22;20332;-73
2022/09/02 06:05:59;;;;;;;0.20;0.20;;;16.70;53.10;;;;;;6247159;22;20007;-73
2022/09/02 06:08:25;;;;;;;0.30;0.30;;;16.70;53.10;;;;;;6275641;22;20010;-73
2022/09/02 06:10:51;;;;;;;0.20;0.20;;;16.80;53.00;;;;;;6248029;22;20007;-73
2022/09/02 06:13:21;;;;;;;0.30;0.30;;;16.80;52.90;;;;;;6248084;22;20078;-73
2022/09/02 06:15:48;;;;;;;0.20;0.20;;;16.90;52.80;;;;;;6275490;22;20010;-73
2022/09/02 06:18:15;;;;;;;0.10;0.10;;;16.90;52.70;;;;;;6275373;22;20019;-73
2022/09/02 06:20:44;;;;;;;0.30;0.30;;;17.00;52.70;;;;;;6274890;22;20027;-72
2022/09/02 06:23:10;;;;;;;0.28;0.28;;;17.00;52.60;;;;;;6247782;22;20034;-73
2022/09/02 06:25:40;;;;;;;0.20;0.20;;;17.10;52.70;;;;;;6274824;22;20007;-73
2022/09/02 06:28:07;;;;;;;0.82;0.28;;;17.10;52.70;;;;;;6274820;22;20527;-73
2022/09/02 06:30:33;;;;;;;0.20;0.20;;;17.10;52.70;;;;;;6274070;22;20400;-73
2022/09/02 06:33:02;;;;;;;0.28;0.28;;;17.20;52.80;;;;;;6247916;22;20046;-73
2022/09/02 06:35:30;;;;;;;0.75;0.30;;;17.10;52.80;;;;;;6274638;22;20447;-73
2022/09/02 06:37:57;;;;;;;0.15;0.15;;;17.10;52.90;;;;;;6274636;22;20003;-74
2022/09/02 06:40:23;;;;;;;0.40;0.40;;;17.10;53.00;;;;;;6274672;22;20435;-74
2022/09/02 06:42:49;;;;;;;0.38;0.20;;;17.10;53.10;;;;;;6246990;22;20000;-74
2022/09/02 06:45:15;;;;;;;0.30;0.30;;;17.10;53.10;;;;;;6274493;22;20011;-74
2022/09/02 06:47:41;;;;;;;0.30;0.30;;;17.10;53.10;;;;;;6274795;22;20316;-74
2022/09/02 06:50:08;;;;;;;0.20;0.20;;;17.10;53.10;;;;;;6274322;22;20054;-74
2022/09/02 06:52:33;;;;;;;0.20;0.20;;;17.10;53.00;;;;;;6274318;22;20074;-74
2022/09/02 06:55:00;;;;;;;0.38;0.30;;;17.20;53.10;;;;;;6274938;22;20004;-73
2022/09/02 06:57:26;;;;;;;0.43;0.30;;;17.20;53.10;;;;;;6274736;22;20003;-73
2022/09/02 06:59:51;;;;;;;0.32;0.20;;;17.20;53.20;;;;;;6247378;22;20062;-74
2022/09/02 07:02:17;;;;;;;0.55;0.30;;;17.20;53.20;;;;;;6274761;22;19999;-74
2022/09/02 07:07:25;;;;;;;0.20;0.20;;;17.30;53.20;;;;;;6251304;22;20086;-74
2022/09/02 07:09:51;;;;;;;0.20;0.20;;;17.30;53.10;;;;;;6274928;22;20023;-74
2022/09/02 07:12:18;;;;;;;0.38;0.30;;;17.30;53.10;;;;;;6247529;22;20000;-74
2022/09/02 07:14:44;;;;;;;0.28;0.28;;;17.40;53.10;;;;;;6274643;22;19999;-74
2022/09/02 07:17:16;;;;;;;0.45;0.30;;;17.50;53.10;;;;;;6274626;22;20083;-74
2022/09/02 07:19:43;;;;;;;0.20;0.20;;;17.50;53.00;;;;;;6274438;22;20007;-74
2022/09/02 07:22:09;;;;;;;0.30;0.30;;;17.60;53.00;;;;;;6274715;22;20003;-74
2022/09/02 07:24:36;;;;;;;0.22;0.22;;;17.60;52.90;;;;;;6274897;22;20367;-74
2022/09/02 07:27:02;;;;;;;0.20;0.20;;;17.70;52.80;;;;;;6274330;22;19996;-74
2022/09/02 07:29:28;;;;;;;0.22;0.22;;;17.80;52.80;;;;;;6274543;22;20031;-73
2022/09/02 07:31:54;;;;;;;0.30;0.30;;;18.10;52.70;;;;;;6247019;22;20327;-73
2022/09/02 07:34:20;;;;;;;0.30;0.30;;;18.10;52.50;;;;;;6275079;22;20033;-73
2022/09/02 07:36:47;;;;;;;0.20;0.20;;;18.20;52.40;;;;;;6247099;22;20004;-73
2022/09/02 07:39:14;;;;;;;0.30;0.30;;;18.30;52.30;;;;;;6247590;22;20075;-73
2022/09/02 07:41:42;;;;;;;0.20;0.20;;;18.40;52.30;;;;;;6274990;22;20003;-73
2022/09/02 07:44:08;;;;;;;0.20;0.20;;;18.40;52.10;;;;;;6276372;22;20008;-74
2022/09/02 07:46:35;;;;;;;0.20;0.20;;;18.50;52.10;;;;;;6276084;22;20095;-73
2022/09/02 07:49:05;;;;;;;0.50;0.30;;;18.70;52.00;;;;;;6276377;22;19999;-76
2022/09/02 07:51:32;;;;;;;0.30;0.30;;;18.80;51.90;;;;;;6276670;22;19999;-73
2022/09/02 07:53:58;;;;;;;0.40;0.30;;;19.00;51.80;;;;;;6275474;22;20024;-73
2022/09/02 07:56:25;;;;;;;0.30;0.30;;;19.10;51.60;;;;;;6275513;22;20007;-74
2022/09/02 07:58:51;;;;;;;0.20;0.20;;;19.20;51.50;;;;;;6248647;22;20007;-74
2022/09/02 08:01:17;;;;;;;0.20;0.20;;;19.40;51.40;;;;;;6275470;22;20077;-73
2022/09/02 08:03:43;;;;;;;0.20;0.20;;;19.60;51.30;;;;;;6222830;22;20412;-73
2022/09/02 08:06:11;;;;;;;0.30;0.30;;;19.70;51.10;;;;;;6276137;22;20054;-74
2022/09/02 08:08:37;;;;;;;0.20;0.20;;;19.90;51.20;;;;;;6275489;22;20027;-73
2022/09/02 08:11:04;;;;;;;0.30;0.30;;;20.10;50.90;;;;;;6276079;22;19999;-74
2022/09/02 08:13:30;;;;;;;0.20;0.20;;;20.30;50.70;;;;;;6275469;22;20003;-74
2022/09/02 08:15:55;;;;;;;0.35;0.30;;;20.50;50.50;;;;;;6275543;22;20051;-73
2022/09/02 08:18:21;;;;;;;0.75;0.32;;;20.60;50.30;;;;;;6276285;22;20428;-74
2022/09/02 08:20:47;;;;;;;0.28;0.28;;;20.80;50.20;;;;;;6276156;22;20329;-74
2022/09/02 08:23:13;;;;;;;0.20;0.20;;;21.00;50.20;;;;;;6249208;22;20312;-74
2022/09/02 08:25:39;;;;;;;0.63;0.30;;;21.10;50.00;;;;;;6275349;22;20012;-73
2022/09/02 08:28:06;;;;;;;0.20;0.20;;;21.30;49.90;;;;;;6275615;22;20420;-74
2022/09/02 08:30:33;;;;;;;0.85;0.35;;;21.40;49.80;;;;;;6272460;22;20396;-74
2022/09/02 08:32:58;;;;;;;1.45;0.40;;;21.60;49.80;;;;;;6249367;22;19996;-74
2022/09/02 08:35:24;;;;;;;0.28;0.28;;;21.80;49.60;;;;;;6275399;22;20007;-74
2022/09/02 08:37:50;;;;;;;0.40;0.40;;;22.10;49.40;;;;;;6275998;22;20004;-74
2022/09/02 08:40:20;;;;;;;0.20;0.20;;;22.20;49.30;;;;;;6275954;22;20000;-74
2022/09/02 08:42:49;;;;;;;0.32;0.30;;;22.40;49.20;;;;;;6275502;22;20000;-74
2022/09/02 08:45:27;;;;;;;0.30;0.30;;;22.60;49.10;;;;;;6275679;22;20070;-73
2022/09/02 08:48:19;;;;;;;0.30;0.30;;;22.60;49.00;;;;;;6275471;22;20049;-74
2022/09/02 08:50:46;;;;;;;1.45;0.43;;;22.70;49.00;;;;;;6248818;22;20031;-74
2022/09/02 08:53:29;;;;;;;1.75;0.40;;;22.70;49.00;;;;;;6275351;22;20000;-74
2022/09/02 08:55:57;;;;;;;0.20;0.20;;;22.90;49.00;;;;;;6275175;22;20117;-74
2022/09/02 08:58:28;;;;;;;1.00;0.40;;;23.00;48.90;;;;;;6276035;22;20003;-74
2022/09/02 09:01:13;;;;;;;0.30;0.30;;;23.10;48.80;;;;;;6248447;22;20408;-74
2022/09/02 09:04:05;;;;;;;0.38;0.38;;;23.10;48.70;;;;;;6275737;22;20004;-74
2022/09/02 09:06:50;;;;;;;0.40;0.30;;;23.20;48.80;;;;;;6275034;22;20076;-74
2022/09/02 09:09:29;;;;;;;0.40;0.40;;;23.30;48.80;;;;;;6249104;22;20014;-74
2022/09/02 09:12:22;;;;;;;0.68;0.30;;;23.40;48.90;;;;;;6249537;22;20324;-74
2022/09/02 09:15:13;;;;;;;0.30;0.30;;;23.40;48.90;;;;;;6251315;22;20008;-74
2022/09/02 09:17:56;;;;;;;0.32;0.32;;;23.50;48.90;;;;;;6254236;22;20006;-74
2022/09/02 09:20:34;;;;;;;0.30;0.30;;;23.60;48.90;;;;;;6249666;22;19996;-74
2022/09/02 09:23:04;;;;;;;0.40;0.40;;;23.70;48.90;;;;;;6275367;22;20163;-75
2022/09/02 09:25:31;;;;;;;0.40;0.40;;;23.70;48.90;;;;;;6275543;22;20019;-74
2022/09/02 09:27:59;;;;;;;0.50;0.40;;;23.70;48.90;;;;;;6275263;22;20325;-74
2022/09/02 09:30:25;;;;;;;1.85;0.30;;;23.70;48.90;;;;;;6248472;22;19996;-74
2022/09/02 09:32:53;;;;;;;0.40;0.40;;;23.80;49.00;;;;;;6275720;22;20000;-74
2022/09/02 09:35:20;;;;;;;0.43;0.43;;;23.80;48.90;;;;;;6275434;22;20006;-74
2022/09/02 09:37:49;;;;;;;0.55;0.40;;;23.90;49.00;;;;;;6248085;22;20424;-74
2022/09/02 09:40:29;;;;;;;0.50;0.50;;;24.10;48.90;;;;;;6275414;22;20077;-74
2022/09/02 09:43:12;;;;;;;0.30;0.30;;;24.10;48.60;;;;;;6275012;22;20023;-74
2022/09/02 09:45:47;;;;;;;0.38;0.38;;;24.30;48.60;;;;;;6274941;22;20008;-74
2022/09/02 09:48:28;;;;;;;0.40;0.40;;;24.30;48.50;;;;;;6248033;22;20077;-74
2022/09/02 09:51:12;;;;;;;0.30;0.30;;;24.30;48.50;;;;;;6275147;22;20004;-75
2022/09/02 09:53:39;;;;;;;0.63;0.35;;;24.40;48.60;;;;;;6248467;22;20417;-74
2022/09/02 09:56:22;;;;;;;0.38;0.30;;;24.40;48.60;;;;;;6275646;22;20030;-74
2022/09/02 09:58:49;;;;;;;0.50;0.50;;;24.30;48.50;;;;;;6252350;22;20004;-74
2022/09/02 10:01:30;;;;;;;0.57;0.50;;;24.50;48.60;;;;;;6274615;22;19999;-74
2022/09/02 10:04:06;;;;;;;0.30;0.30;;;24.40;48.50;;;;;;6247139;22;20432;-74
2022/09/02 10:06:42;;;;;;;0.30;0.30;;;24.40;48.50;;;;;;6274941;22;20003;-74
2022/09/02 10:09:27;;;;;;;0.40;0.40;;;24.40;48.60;;;;;;6275334;22;20019;-74
2022/09/02 10:12:06;;;;;;;0.80;0.50;;;24.40;48.60;;;;;;6276292;22;20857;-75
2022/09/02 10:14:36;;;;;;;0.40;0.40;;;24.40;48.60;;;;;;6277285;22;20000;-74
2022/09/02 10:17:14;;;;;;;0.63;0.30;;;24.50;48.60;;;;;;6249819;22;20428;-74
2022/09/02 10:19:58;;;;;;;0.40;0.40;;;24.50;48.60;;;;;;6275925;22;20409;-74
2022/09/02 10:22:54;;;;;;;0.40;0.40;;;24.50;48.60;;;;;;6274766;22;20006;-73
2022/09/02 10:25:38;;;;;;;0.73;0.40;;;24.50;48.50;;;;;;6271259;22;20004;-74
2022/09/02 10:28:34;;;;;;;0.40;0.40;;;24.50;48.50;;;;;;6274653;22;20075;-74
2022/09/02 10:31:36;;;;;;;0.38;0.38;;;24.50;48.60;;;;;;6272136;22;20008;-74
2022/09/02 10:34:24;;;;;;;0.40;0.40;;;24.40;48.60;;;;;;6258917;22;20000;-75
2022/09/02 10:37:17;;;;;;;0.40;0.40;;;24.50;48.60;;;;;;6276773;22;20030;-74
2022/09/02 10:40:03;;;;;;;0.40;0.40;;;24.60;48.60;;;;;;6277031;22;19996;-74
2022/09/02 10:42:58;;;;;;;0.38;0.38;;;24.50;48.50;;;;;;6275758;22;20010;-74
2022/09/02 10:45:35;;;;;;;0.30;0.30;;;24.60;48.40;;;;;;6248845;22;20374;-74
2022/09/02 10:48:25;;;;;;;0.47;0.40;;;24.60;48.30;;;;;;6275794;22;20420;-74
2022/09/02 10:51:03;;;;;;;0.60;0.47;;;24.60;48.20;;;;;;6275803;22;20078;-74
2022/09/02 10:53:39;;;;;;;0.30;0.30;;;24.70;48.20;;;;;;6274889;22;20054;-74
2022/09/02 10:56:16;;;;;;;0.38;0.38;;;24.70;48.10;;;;;;6271660;22;19999;-74
2022/09/02 10:58:56;;;;;;;0.50;0.45;;;24.70;48.10;;;;;;6249566;22;20004;-74
2022/09/02 11:01:32;;;;;;;0.30;0.30;;;24.70;48.10;;;;;;6275112;22;20309;-74
2022/09/02 11:04:20;;;;;;;0.30;0.30;;;24.80;48.20;;;;;;6276059;22;20011;-74
2022/09/02 11:06:49;;;;;;;0.30;0.30;;;24.80;48.00;;;;;;6275875;22;20015;-74
2022/09/02 11:09:44;;;;;;;0.30;0.30;;;24.90;48.60;;;;;;6275052;22;20446;-74
2022/09/02 11:12:19;;;;;;;0.30;0.30;;;25.00;47.90;;;;;;6249027;22;20026;-74
2022/09/02 11:14:59;;;;;;;1.05;0.50;;;24.90;47.70;;;;;;6276612;22;20012;-74
2022/09/02 11:17:35;;;;;;;0.50;0.50;;;25.10;47.60;;;;;;6277751;22;20011;-74
2022/09/02 11:20:29;;;;;;;0.57;0.57;;;25.30;47.50;;;;;;6262254;22;20429;-74
2022/09/02 11:23:02;;;;;;;0.60;0.43;;;25.30;47.30;;;;;;6229417;22;20012;-74
2022/09/02 11:25:38;;;;;;;0.40;0.40;;;25.50;47.30;;;;;;6277464;22;20081;-74
2022/09/02 11:28:29;;;;;;;0.40;0.40;;;25.50;47.20;;;;;;6277492;22;20085;-74
2022/09/02 11:31:02;;;;;;;;;;;25.70;47.10;;;;;;6250559;22;20428;-74
2022/09/02 11:33:41;;;;;;;0.30;0.30;;;25.80;47.00;;;;;;6277095;22;19923;-74
2022/09/02 11:36:07;;;;;;;0.30;0.30;;;25.90;46.90;;;;;;6276636;22;20061;-74
2022/09/02 11:38:42;;;;;;;0.50;0.50;;;26.10;46.80;;;;;;6249068;22;20305;-73
2022/09/02 11:41:25;;;;;;;0.30;0.30;;;26.10;46.60;;;;;;6277745;22;20447;-74
2022/09/02 11:44:00;;;;;;;0.60;0.60;;;26.10;46.50;;;;;;6276451;22;20007;-74
2022/09/02 11:46:46;;;;;;;0.50;0.50;;;26.20;46.40;;;;;;6276715;22;20011;-74
2022/09/02 11:49:51;;;;;;;0.93;0.63;;;26.30;46.30;;;;;;6253942;22;20007;-74
2022/09/02 11:52:27;;;;;;;0.30;0.30;;;26.40;46.10;;;;;;6229886;22;20011;-74
2022/09/02 11:55:08;;;;;;;0.50;0.50;;;26.50;46.70;;;;;;6250846;22;20058;-74
2022/09/02 11:57:39;;;;;;;0.50;0.50;;;26.50;45.90;;;;;;6250255;22;20019;-75
2022/09/02 12:00:09;;;;;;;0.30;0.30;;;26.60;45.90;;;;;;6254814;22;20012;-75
2022/09/02 12:02:45;;;;;;;0.50;0.50;;;26.60;45.80;;;;;;6279918;22;20012;-75
2022/09/02 12:05:41;;;;;;;0.50;0.50;;;26.60;45.70;;;;;;6279224;22;20004;-75
2022/09/02 12:08:55;;;;;;;0.40;0.40;;;26.60;45.70;;;;;;6260827;22;20003;-75
2022/09/02 12:11:40;;;;;;;0.30;0.30;;;26.60;45.80;;;;;;6258591;22;20428;-76
2022/09/02 12:14:12;;;;;;;0.38;0.38;;;26.60;45.70;;;;;;6260185;22;20056;-75
2022/09/02 12:16:43;;;;;;;0.98;0.43;;;26.60;45.80;;;;;;6132383;23;20025;-76
2022/09/02 12:19:26;;;;;;;0.40;0.40;;;26.60;45.70;;;;;;5965386;24;20107;-75
2022/09/02 12:22:24;;;;;;;0.40;0.40;;;26.50;45.60;;;;;;5985536;24;20024;-74
2022/09/02 12:25:02;;;;;;;0.35;0.35;;;26.60;45.60;;;;;;5982857;24;20012;-75
2022/09/02 12:27:36;;;;;;;0.40;0.40;;;26.70;45.50;;;;;;5982151;24;20015;-74
2022/09/02 12:30:08;;;;;;;0.40;0.40;;;26.70;45.10;;;;;;5982567;24;20008;-74
2022/09/02 12:33:03;;;;;;;0.40;0.40;;;26.70;45.10;;;;;;5979660;24;20004;-74
2022/09/02 12:35:50;;;;;;;0.55;0.55;;;26.70;45.10;;;;;;5960927;24;20035;-74
2022/09/02 12:38:22;;;;;;;0.40;0.40;;;26.80;45.10;;;;;;5972552;24;20109;-75
2022/09/02 12:41:11;;;;;;;0.52;0.52;;;26.80;45.00;;;;;;5936880;24;20008;-74
2022/09/02 12:44:03;;;;;;;0.40;0.40;;;26.80;44.90;;;;;;5959326;24;20480;-74
2022/09/02 12:47:09;;;;;;;0.40;0.40;;;26.80;44.90;;;;;;5979949;23;20016;-74
2022/09/02 12:49:45;;;;;;;0.60;0.60;;;26.80;44.90;;;;;;6124125;23;20580;-75
2022/09/02 12:52:24;;;;;;;0.60;0.60;;;26.80;44.80;;;;;;6265594;22;20026;-75
2022/09/02 12:54:50;;;;;;;0.57;0.50;;;26.90;44.80;;;;;;6278612;22;20004;-75
2022/09/02 12:57:17;;;;;;;0.50;0.50;;;27.00;44.60;;;;;;6278243;22;20047;-74
2022/09/02 12:59:45;;;;;;;0.45;0.45;;;27.10;44.50;;;;;;6223477;22;20004;-74
2022/09/02 13:02:38;;;;;;;0.60;0.50;;;27.10;44.30;;;;;;6275949;22;20010;-75
2022/09/02 13:05:20;;;;;;;0.43;0.43;;;27.10;44.20;;;;;;6275368;22;20004;-75
2022/09/02 13:08:25;;;;;;;0.40;0.40;;;27.20;44.20;;;;;;6275064;22;20388;-75
2022/09/02 13:11:25;;;;;;;0.45;0.45;;;27.10;44.20;;;;;;6275061;22;20000;-75
2022/09/02 13:14:12;;;;;;;;;;;27.00;44.40;;;;;;6252912;22;20014;-75
2022/09/02 13:17:08;;;;;;;0.43;0.43;;;26.90;44.60;;;;;;6253521;22;19945;-75